createdAt,value
2023-01-13T00:02:25.646Z,24.23
2023-01-13T00:05:31.237Z,25.52
2023-01-13T00:08:36.602Z,27.17
2023-01-13T00:11:42.601Z,28.65
2023-01-13T00:14:47.887Z,27.48
2023-01-13T00:17:53.123Z,27.20
2023-01-13T00:21:06.736Z,26.23
2023-01-13T00:24:12.146Z,26.38
2023-01-13T00:27:17.057Z,25.80
2023-01-13T00:30:22.419Z,25.08
2023-01-13T00:33:27.507Z,24.67
2023-01-13T00:36:33.161Z,26.13
2023-01-13T00:39:39.158Z,23.27
2023-01-13T00:43:23.548Z,24.23
2023-01-13T00:46:28.865Z,24.08
2023-01-13T00:49:34.328Z,25.92
2023-01-13T00:52:42.011Z,24.45
2023-01-13T00:55:47.728Z,24.55
2023-01-13T00:58:53.421Z,25.67
2023-01-13T01:01:58.926Z,25.33
2023-01-13T01:05:04.405Z,25.23
2023-01-13T01:08:10.153Z,23.63
2023-01-13T01:11:18.793Z,25.23
2023-01-13T01:14:24.255Z,23.15
2023-01-13T01:17:29.462Z,23.25
2023-01-13T01:20:35.147Z,24.75
2023-01-13T01:23:41.235Z,24.13
2023-01-13T01:26:46.780Z,24.13
2023-01-13T01:29:52.150Z,25.13
2023-01-13T01:32:57.690Z,26.00
2023-01-13T01:36:05.189Z,24.95
2023-01-13T01:39:10.947Z,25.70
2023-01-13T01:42:36.115Z,24.38
2023-01-13T01:45:41.435Z,25.50
2023-01-13T01:48:46.906Z,25.98
2023-01-13T01:52:12.269Z,27.75
2023-01-13T01:55:22.305Z,26.27
2023-01-13T01:58:38.026Z,24.38
2023-01-13T02:01:44.705Z,23.77
2023-01-13T02:04:56.408Z,25.70
2023-01-13T02:08:02.768Z,25.30
2023-01-13T02:11:28.713Z,27.55
2023-01-13T02:14:34.717Z,27.50
2023-01-13T02:17:48.824Z,27.35
2023-01-13T02:21:19.368Z,27.15
2023-01-13T02:25:07.486Z,25.80
2023-01-13T02:28:37.865Z,25.65
2023-01-13T02:31:48.056Z,25.17
2023-01-13T02:35:15.068Z,26.48
2023-01-13T02:38:29.247Z,27.10
2023-01-13T02:41:57.331Z,25.38
2023-01-13T02:45:35.706Z,24.80
2023-01-13T02:48:45.058Z,25.88
2023-01-13T02:51:53.618Z,25.17
2023-01-13T02:55:09.360Z,25.27
2023-01-13T02:58:20.442Z,25.80
2023-01-13T03:01:26.121Z,24.17
2023-01-13T03:04:50.563Z,23.73
2023-01-13T03:08:16.000Z,27.00
2023-01-13T03:11:22.193Z,23.73
2023-01-13T03:14:46.167Z,25.08
2023-01-13T03:18:28.201Z,24.50
2023-01-13T03:21:48.087Z,24.23
2023-01-13T03:25:18.674Z,26.05
2023-01-13T03:28:32.328Z,26.98
2023-01-13T03:31:47.390Z,26.35
2023-01-13T03:35:00.409Z,26.17
2023-01-13T03:38:12.899Z,23.63
2023-01-13T03:44:39.095Z,25.77
2023-01-13T03:47:57.658Z,24.20
2023-01-13T03:51:08.741Z,25.13
2023-01-13T03:54:16.138Z,24.65
2023-01-13T03:57:27.063Z,23.85
2023-01-13T04:00:39.303Z,26.75
2023-01-13T04:07:12.819Z,23.27
2023-01-13T04:10:26.882Z,24.45
2023-01-13T04:13:37.762Z,23.27
2023-01-13T04:16:43.082Z,23.67
2023-01-13T04:19:48.847Z,25.35
2023-01-13T04:22:54.336Z,24.73
2023-01-13T04:26:00.262Z,23.92
2023-01-13T04:29:05.762Z,23.38
2023-01-13T04:32:11.415Z,23.30
2023-01-13T04:35:17.525Z,22.50
2023-01-13T04:38:23.145Z,24.73
2023-01-13T04:41:28.802Z,23.40
2023-01-13T04:44:36.027Z,23.08
2023-01-13T04:47:44.617Z,22.10
2023-01-13T04:50:50.346Z,22.55
2023-01-13T04:53:55.699Z,22.35
2023-01-13T04:57:01.301Z,21.90
2023-01-13T05:00:08.198Z,22.83
2023-01-13T05:03:13.743Z,24.08
2023-01-13T05:06:19.271Z,22.58
2023-01-13T05:09:24.761Z,88.70
2023-01-13T05:12:49.018Z,28.05
2023-01-13T05:16:13.364Z,23.10
2023-01-13T05:19:18.832Z,22.70
2023-01-13T05:22:42.834Z,23.40
2023-01-13T05:25:48.853Z,22.08
2023-01-13T05:28:54.395Z,24.50
2023-01-13T05:32:03.088Z,24.23
2023-01-13T05:35:08.981Z,24.40
2023-01-13T05:38:16.104Z,24.50
2023-01-13T05:41:39.905Z,22.77
2023-01-13T05:44:45.688Z,22.17
2023-01-13T05:47:51.086Z,24.35
2023-01-13T05:50:56.952Z,24.02
2023-01-13T05:54:02.639Z,23.90
2023-01-13T05:57:08.704Z,25.35
2023-01-13T06:00:14.876Z,24.42
2023-01-13T06:03:20.596Z,25.65
2023-01-13T06:06:26.335Z,26.25
2023-01-13T06:09:31.706Z,26.25
2023-01-13T06:12:37.537Z,28.15
2023-01-13T06:15:43.212Z,28.83
2023-01-13T06:18:48.399Z,25.85
2023-01-13T06:21:58.133Z,27.17
2023-01-13T06:25:04.111Z,26.55
2023-01-13T06:28:09.731Z,26.75
2023-01-13T06:31:15.372Z,28.15
2023-01-13T06:34:21.385Z,29.55
2023-01-13T06:37:28.817Z,29.70
2023-01-13T06:40:35.468Z,27.70
2023-01-13T06:43:41.727Z,27.27
2023-01-13T06:46:48.049Z,28.48
2023-01-13T06:49:53.883Z,23.98
2023-01-13T06:52:59.617Z,25.25
2023-01-13T06:56:05.193Z,23.13
2023-01-13T06:59:10.716Z,24.40
2023-01-13T07:02:16.674Z,23.80
2023-01-13T07:05:22.846Z,22.90
2023-01-13T07:08:27.791Z,24.55
2023-01-13T07:11:33.376Z,25.27
2023-01-13T07:14:57.873Z,23.27
2023-01-13T07:18:03.966Z,24.10
2023-01-13T07:21:13.492Z,23.40
2023-01-13T07:24:19.876Z,23.17
2023-01-13T07:27:26.065Z,24.42
2023-01-13T07:30:31.669Z,26.73
2023-01-13T07:33:37.724Z,26.48
2023-01-13T07:36:43.649Z,27.02
2023-01-13T07:39:50.650Z,26.88
2023-01-13T07:43:14.202Z,29.52
2023-01-13T07:46:19.823Z,29.02
2023-01-13T07:49:25.237Z,32.60
2023-01-13T07:52:30.668Z,31.98
2023-01-13T07:55:42.077Z,42.80
2023-01-13T07:58:51.084Z,29.42
2023-01-13T08:01:56.650Z,27.15
2023-01-13T08:05:02.313Z,29.02
2023-01-13T08:08:08.311Z,28.73
2023-01-13T08:11:13.907Z,33.97
2023-01-13T08:14:19.598Z,54.22
2023-01-13T08:17:25.463Z,37.70
2023-01-13T08:20:33.086Z,30.77
2023-01-13T08:23:39.807Z,29.23
2023-01-13T08:26:45.974Z,28.48
2023-01-13T08:29:51.589Z,27.88
2023-01-13T08:32:57.340Z,26.70
2023-01-13T08:36:05.578Z,27.70
2023-01-13T08:39:11.262Z,28.48
2023-01-13T08:42:16.806Z,27.20
2023-01-13T08:45:22.346Z,29.95
2023-01-13T08:48:31.367Z,27.27
2023-01-13T08:51:36.942Z,29.85
2023-01-13T08:54:42.452Z,31.83
2023-01-13T08:57:48.009Z,33.95
2023-01-13T09:00:54.239Z,32.92
2023-01-13T09:04:00.089Z,31.52
2023-01-13T09:07:05.672Z,29.35
2023-01-13T09:10:11.468Z,28.30
2023-01-13T09:13:17.580Z,31.15
2023-01-13T09:16:23.327Z,29.83
2023-01-13T09:19:29.459Z,30.92
2023-01-13T09:22:37.832Z,29.27
2023-01-13T09:25:43.310Z,29.85
2023-01-13T09:28:49.015Z,27.90
2023-01-13T09:31:55.134Z,25.70
2023-01-13T09:35:00.885Z,24.73
2023-01-13T09:38:07.407Z,24.20
2023-01-13T09:41:38.455Z,25.42
2023-01-13T09:45:06.274Z,23.52
2023-01-13T09:48:32.924Z,22.15
2023-01-13T09:51:51.756Z,23.80
2023-01-13T09:55:20.028Z,22.50
2023-01-13T09:58:25.796Z,22.75
2023-01-13T10:01:46.423Z,24.05
2023-01-13T10:05:23.224Z,24.73
2023-01-13T10:08:45.008Z,23.33
2023-01-13T10:12:11.542Z,22.50
2023-01-13T10:15:23.436Z,24.80
2023-01-13T10:18:37.453Z,23.73
2023-01-13T10:22:09.362Z,24.60
2023-01-13T10:25:42.180Z,23.30
2023-01-13T10:28:56.226Z,25.02
2023-01-13T10:32:01.900Z,23.23
2023-01-13T10:35:08.980Z,24.13
2023-01-13T10:38:21.927Z,23.48
2023-01-13T10:41:28.422Z,22.13
2023-01-13T10:44:51.173Z,25.65
2023-01-13T10:48:08.267Z,22.60
2023-01-13T10:51:44.545Z,24.63
2023-01-13T10:54:54.455Z,25.35
2023-01-13T10:58:19.734Z,24.98
2023-01-13T11:01:27.682Z,26.45
2023-01-13T11:04:37.774Z,23.95
2023-01-13T11:07:54.442Z,25.38
2023-01-13T11:11:00.213Z,25.05
2023-01-13T11:14:31.674Z,25.45
2023-01-13T11:17:46.614Z,24.77
2023-01-13T11:20:55.679Z,28.30
2023-01-13T11:24:19.261Z,24.00
2023-01-13T11:27:44.781Z,25.08
2023-01-13T11:31:24.813Z,24.85
2023-01-13T11:34:37.547Z,27.02
2023-01-13T11:37:50.546Z,23.33
2023-01-13T11:41:13.240Z,24.90
2023-01-13T11:44:25.866Z,24.73
2023-01-13T11:47:32.926Z,25.00
2023-01-13T11:50:43.454Z,26.38
2023-01-13T11:54:14.951Z,24.30
2023-01-13T11:57:37.781Z,24.35
2023-01-13T12:00:57.999Z,24.65
2023-01-13T12:04:33.488Z,22.55
2023-01-13T12:08:12.807Z,21.85
2023-01-13T12:11:32.868Z,24.23
2023-01-13T12:15:07.266Z,25.30
2023-01-13T12:18:30.708Z,23.67
2023-01-13T12:21:57.889Z,23.48
2023-01-13T12:25:13.772Z,23.25
2023-01-13T12:28:43.725Z,23.77
2023-01-13T12:31:51.577Z,23.50
2023-01-13T12:35:15.722Z,23.88
2023-01-13T12:38:56.916Z,24.70
2023-01-13T12:42:52.550Z,24.03
2023-01-13T12:46:19.285Z,24.42
2023-01-13T12:49:31.170Z,24.77
2023-01-13T12:52:45.814Z,23.90
2023-01-13T12:55:53.358Z,23.17
2023-01-13T12:59:21.918Z,25.25
2023-01-13T13:02:29.147Z,23.90
2023-01-13T13:05:44.774Z,22.63
2023-01-13T13:09:03.709Z,22.65
2023-01-13T13:12:49.590Z,22.10
2023-01-13T13:16:26.472Z,23.15
2023-01-13T13:19:31.548Z,23.15
2023-01-13T13:22:43.128Z,22.08
2023-01-13T13:26:13.955Z,20.35
2023-01-13T13:29:28.029Z,20.20
2023-01-13T13:32:39.751Z,20.80
2023-01-13T13:36:15.503Z,21.48
2023-01-13T13:39:45.326Z,21.27
2023-01-13T13:43:16.171Z,20.75
2023-01-13T13:46:48.047Z,22.75
2023-01-13T13:49:57.217Z,18.13
2023-01-13T13:53:06.439Z,19.38
2023-01-13T13:56:22.239Z,18.45
2023-01-13T13:59:33.911Z,18.25
2023-01-13T14:02:39.410Z,19.88
2023-01-13T14:06:04.684Z,17.60
2023-01-13T14:09:17.958Z,18.92
2023-01-13T14:12:26.199Z,17.88
2023-01-13T14:15:39.252Z,17.75
2023-01-13T14:18:48.845Z,17.33
2023-01-13T14:21:54.602Z,18.15
2023-01-13T14:25:02.113Z,17.65
2023-01-13T14:28:13.271Z,18.05
2023-01-13T14:31:19.845Z,17.85
2023-01-13T14:34:31.501Z,19.10
2023-01-13T14:37:42.016Z,19.02
2023-01-13T14:40:47.534Z,18.40
2023-01-13T14:43:57.983Z,18.02
2023-01-13T14:47:20.102Z,17.08
2023-01-13T14:50:31.748Z,18.80
2023-01-13T14:53:37.201Z,18.93
2023-01-13T14:56:55.369Z,29.58
2023-01-13T15:00:16.014Z,36.15
2023-01-13T15:03:21.994Z,37.97
2023-01-13T15:06:27.308Z,39.00
2023-01-13T15:09:55.299Z,36.63
2023-01-13T15:13:04.828Z,34.97
2023-01-13T15:16:25.297Z,34.97
2023-01-13T15:19:31.531Z,38.35
2023-01-13T15:22:37.292Z,45.22
2023-01-13T15:25:44.331Z,48.50
2023-01-13T15:28:50.733Z,44.63
2023-01-13T15:31:56.019Z,34.10
2023-01-13T15:35:01.067Z,30.58
2023-01-13T15:38:12.493Z,27.92
2023-01-13T15:41:17.704Z,25.27
2023-01-13T15:44:41.751Z,25.67
2023-01-13T15:47:48.389Z,23.98
2023-01-13T15:50:54.013Z,22.67
2023-01-13T15:54:02.841Z,23.65
2023-01-13T15:57:38.271Z,24.10
2023-01-13T16:00:43.718Z,22.45
2023-01-13T16:03:49.099Z,23.02
2023-01-13T16:06:55.636Z,22.95
2023-01-13T16:10:02.040Z,23.23
2023-01-13T16:13:07.553Z,23.38
2023-01-13T16:16:39.032Z,24.98
2023-01-13T16:19:45.353Z,23.00
2023-01-13T16:22:50.496Z,22.45
2023-01-13T16:25:55.860Z,23.38
2023-01-13T16:29:01.204Z,24.85
2023-01-13T16:32:06.504Z,22.83
2023-01-13T16:35:11.446Z,24.30
2023-01-13T16:38:17.830Z,26.05
2023-01-13T16:41:25.212Z,24.35
2023-01-13T16:44:30.397Z,25.83
2023-01-13T16:47:36.015Z,27.15
2023-01-13T16:50:42.706Z,28.67
2023-01-13T16:53:48.684Z,26.52
2023-01-13T16:56:54.194Z,29.13
2023-01-13T16:59:59.369Z,33.45
2023-01-13T17:03:05.397Z,35.42
2023-01-13T17:06:12.403Z,33.47
2023-01-13T17:09:23.666Z,32.67
2023-01-13T17:12:28.731Z,34.40
2023-01-13T17:15:34.523Z,33.13
2023-01-13T17:18:40.451Z,31.02
2023-01-13T17:21:47.316Z,31.02
2023-01-13T17:24:52.656Z,28.98
2023-01-13T17:27:58.205Z,30.13
2023-01-13T17:31:03.659Z,27.95
2023-01-13T17:34:11.000Z,27.55
2023-01-13T17:37:16.511Z,26.27
2023-01-13T17:40:21.925Z,28.20
2023-01-13T17:43:27.462Z,29.85
2023-01-13T17:46:32.925Z,29.77
2023-01-13T17:49:38.587Z,34.00
2023-01-13T17:52:44.073Z,33.58
2023-01-13T17:55:51.908Z,33.97
2023-01-13T17:58:58.884Z,32.63
2023-01-13T18:02:05.148Z,33.33
2023-01-13T18:05:10.300Z,34.50
2023-01-13T18:08:16.046Z,34.55
2023-01-13T18:11:22.889Z,35.90
2023-01-13T18:14:28.815Z,32.90
2023-01-13T18:17:34.739Z,33.40
2023-01-13T18:20:58.627Z,38.92
2023-01-13T18:24:23.122Z,38.10
2023-01-13T18:27:35.508Z,40.60
2023-01-13T18:30:41.299Z,41.72
2023-01-13T18:33:47.185Z,38.80
2023-01-13T18:36:52.595Z,39.78
2023-01-13T18:39:58.779Z,41.05
2023-01-13T18:43:04.439Z,43.13
2023-01-13T18:46:09.829Z,41.85
2023-01-13T18:49:15.380Z,41.40
2023-01-13T18:52:24.180Z,44.55
2023-01-13T18:55:29.855Z,41.72
2023-01-13T18:58:35.515Z,44.15
2023-01-13T19:01:42.005Z,43.47
2023-01-13T19:04:48.033Z,41.42
2023-01-13T19:07:53.843Z,41.30
2023-01-13T19:11:07.698Z,40.85
2023-01-13T19:14:34.358Z,40.13
2023-01-13T19:17:40.012Z,40.67
2023-01-13T19:20:45.773Z,37.63
2023-01-13T19:23:54.047Z,39.20
2023-01-13T19:26:59.333Z,41.45
2023-01-13T19:30:06.479Z,40.67
2023-01-13T19:33:11.652Z,43.72
2023-01-13T19:36:17.012Z,42.67
2023-01-13T19:39:22.700Z,40.17
2023-01-13T19:42:46.779Z,41.25
2023-01-13T19:45:52.783Z,41.05
2023-01-13T19:48:58.143Z,41.90
2023-01-13T19:52:03.665Z,42.85
2023-01-13T19:55:12.028Z,42.38
2023-01-13T19:58:20.933Z,42.58
2023-01-13T20:01:35.413Z,43.65
2023-01-13T20:04:44.846Z,43.55
2023-01-13T20:07:51.260Z,44.63
2023-01-13T20:11:16.557Z,45.13
2023-01-13T20:14:22.161Z,53.03
2023-01-13T20:17:28.218Z,54.00
2023-01-13T20:20:34.547Z,50.75
2023-01-13T20:23:40.418Z,52.08
2023-01-13T20:26:48.705Z,46.90
2023-01-13T20:29:55.153Z,47.85
2023-01-13T20:33:02.331Z,43.45
2023-01-13T20:36:18.180Z,44.65
2023-01-13T20:39:30.776Z,40.80
2023-01-13T20:42:46.724Z,40.92
2023-01-13T20:45:53.982Z,42.72
2023-01-13T20:49:01.329Z,42.05
2023-01-13T20:52:12.343Z,42.80
2023-01-13T20:55:19.017Z,42.55
2023-01-13T20:58:26.799Z,39.95
2023-01-13T21:01:34.808Z,39.40
2023-01-13T21:04:48.086Z,39.83
2023-01-13T21:07:55.335Z,38.10
2023-01-13T21:11:12.169Z,36.80
2023-01-13T21:14:39.230Z,37.80
2023-01-13T21:18:05.973Z,36.70
2023-01-13T21:21:13.197Z,37.10
2023-01-13T21:24:19.903Z,35.67
2023-01-13T21:27:26.409Z,34.90
2023-01-13T21:30:33.738Z,34.08
2023-01-13T21:33:39.232Z,34.83
2023-01-13T21:36:44.772Z,35.75
2023-01-13T21:39:50.349Z,35.08
2023-01-13T21:43:19.260Z,33.88
2023-01-13T21:46:43.539Z,31.73
2023-01-13T21:49:49.596Z,34.10
2023-01-13T21:52:56.451Z,33.35
2023-01-13T21:56:01.903Z,33.35
2023-01-13T21:59:07.466Z,34.58
2023-01-13T22:02:29.391Z,32.58
2023-01-13T22:05:35.204Z,34.22
2023-01-13T22:08:40.512Z,33.42
2023-01-13T22:11:46.039Z,33.50
2023-01-13T22:14:52.507Z,35.70
2023-01-13T22:17:59.737Z,34.75
2023-01-13T22:21:06.262Z,37.33
2023-01-13T22:24:12.206Z,35.38
2023-01-13T22:27:26.163Z,34.42
2023-01-13T22:30:32.796Z,37.83
2023-01-13T22:33:39.319Z,39.75
2023-01-13T22:36:44.705Z,43.42
2023-01-13T22:39:50.674Z,41.17
2023-01-13T22:42:56.383Z,42.65
2023-01-13T22:46:08.059Z,40.22
2023-01-13T22:49:15.837Z,41.00
2023-01-13T22:52:22.964Z,37.25
2023-01-13T22:55:28.889Z,38.55
2023-01-13T22:58:34.859Z,39.60
2023-01-13T23:01:42.392Z,40.42
2023-01-13T23:04:48.279Z,38.65
2023-01-13T23:07:54.118Z,40.30
2023-01-13T23:11:16.244Z,38.50
2023-01-13T23:14:21.566Z,41.20
2023-01-13T23:17:27.210Z,41.58
2023-01-13T23:20:33.566Z,40.72
2023-01-13T23:23:39.986Z,39.67
2023-01-13T23:26:45.381Z,41.58
2023-01-13T23:29:50.936Z,42.95
2023-01-13T23:32:56.318Z,41.50
2023-01-13T23:36:05.519Z,40.17
2023-01-13T23:39:10.921Z,39.92
2023-01-13T23:42:16.425Z,40.83
2023-01-13T23:45:21.549Z,38.60
2023-01-13T23:48:26.920Z,41.33
2023-01-13T23:51:32.754Z,41.67
2023-01-13T23:54:38.227Z,41.65
2023-01-13T23:57:44.385Z,40.60
